createdAt,value
2022-08-26T00:02:07.590Z,26.98
2022-08-26T00:04:36.457Z,24.65
2022-08-26T00:07:05.709Z,40.72
2022-08-26T00:09:38.959Z,36.28
2022-08-26T00:12:09.443Z,34.50
2022-08-26T00:14:42.475Z,37.58
2022-08-26T00:17:11.586Z,33.88
2022-08-26T00:19:40.032Z,31.13
2022-08-26T00:22:08.749Z,34.13
2022-08-26T00:24:37.198Z,33.03
2022-08-26T00:27:06.502Z,28.35
2022-08-26T00:29:35.628Z,31.85
2022-08-26T00:32:08.023Z,31.75
2022-08-26T00:34:36.607Z,34.30
2022-08-26T00:37:09.379Z,31.15
2022-08-26T00:39:38.827Z,32.10
2022-08-26T00:42:07.647Z,27.55
2022-08-26T00:44:36.038Z,26.95
2022-08-26T00:47:07.951Z,30.13
2022-08-26T00:49:39.699Z,36.00
2022-08-26T00:52:11.925Z,42.03
2022-08-26T00:54:46.755Z,33.30
2022-08-26T00:57:16.758Z,41.20
2022-08-26T00:59:46.548Z,43.47
2022-08-26T01:02:20.945Z,33.97
2022-08-26T01:04:55.892Z,34.42
2022-08-26T01:07:26.211Z,41.75
2022-08-26T01:09:56.435Z,40.83
2022-08-26T01:12:30.061Z,33.42
2022-08-26T01:14:58.488Z,33.67
2022-08-26T01:17:26.989Z,36.55
2022-08-26T01:20:00.609Z,42.42
2022-08-26T01:22:33.097Z,46.17
2022-08-26T01:25:03.884Z,36.28
2022-08-26T01:27:33.824Z,46.67
2022-08-26T01:30:03.540Z,29.58
2022-08-26T01:32:33.717Z,31.52
2022-08-26T01:35:02.731Z,32.55
2022-08-26T01:37:34.805Z,27.73
2022-08-26T01:40:06.036Z,30.50
2022-08-26T01:42:34.811Z,34.45
2022-08-26T01:45:06.676Z,30.67
2022-08-26T01:47:36.348Z,28.05
2022-08-26T01:50:08.037Z,32.60
2022-08-26T01:52:37.993Z,33.80
2022-08-26T01:55:09.251Z,42.70
2022-08-26T01:57:38.045Z,42.60
2022-08-26T02:00:09.336Z,40.10
2022-08-26T02:02:40.570Z,42.05
2022-08-26T02:05:13.333Z,39.88
2022-08-26T02:07:42.226Z,39.92
2022-08-26T02:10:13.154Z,44.63
2022-08-26T02:12:42.364Z,39.40
2022-08-26T02:15:12.812Z,44.88
2022-08-26T02:17:44.453Z,47.10
2022-08-26T02:20:14.944Z,44.17
2022-08-26T02:22:45.242Z,38.88
2022-08-26T02:25:21.492Z,49.55
2022-08-26T02:27:51.495Z,48.05
2022-08-26T02:30:21.022Z,42.08
2022-08-26T02:32:49.772Z,45.38
2022-08-26T02:35:20.347Z,35.72
2022-08-26T02:37:50.094Z,38.83
2022-08-26T02:40:22.667Z,40.13
2022-08-26T02:42:53.045Z,36.25
2022-08-26T02:45:24.955Z,41.30
2022-08-26T02:47:53.539Z,43.72
2022-08-26T02:50:22.301Z,46.47
2022-08-26T02:52:51.640Z,37.00
2022-08-26T02:55:21.892Z,36.20
2022-08-26T02:57:53.247Z,38.42
2022-08-26T03:00:21.872Z,41.92
2022-08-26T03:02:52.244Z,46.00
2022-08-26T03:05:22.191Z,41.53
2022-08-26T03:07:53.002Z,42.15
2022-08-26T03:10:25.973Z,36.42
2022-08-26T03:12:54.608Z,49.58
2022-08-26T03:15:23.028Z,51.25
2022-08-26T03:17:51.446Z,45.08
2022-08-26T03:20:20.179Z,46.42
2022-08-26T03:22:51.435Z,40.03
2022-08-26T03:25:19.864Z,41.25
2022-08-26T03:27:49.694Z,47.47
2022-08-26T03:30:36.138Z,49.75
2022-08-26T03:33:05.164Z,41.78
2022-08-26T03:35:34.165Z,41.40
2022-08-26T03:38:03.360Z,43.08
2022-08-26T03:40:33.855Z,54.45
2022-08-26T03:43:03.973Z,46.97
2022-08-26T03:45:32.650Z,47.60
2022-08-26T03:48:01.208Z,49.85
2022-08-26T03:50:30.742Z,51.83
2022-08-26T03:53:03.447Z,46.58
2022-08-26T03:55:33.494Z,41.03
2022-08-26T03:58:02.553Z,57.22
2022-08-26T04:00:32.715Z,54.40
2022-08-26T04:03:03.101Z,46.10
2022-08-26T04:05:31.811Z,41.05
2022-08-26T04:08:00.255Z,52.50
2022-08-26T04:10:29.532Z,54.47
2022-08-26T04:12:58.890Z,53.75
2022-08-26T04:15:28.100Z,51.30
2022-08-26T04:17:58.344Z,47.78
2022-08-26T04:20:27.094Z,47.83
2022-08-26T04:22:55.556Z,45.90
2022-08-26T04:25:24.335Z,53.40
2022-08-26T04:27:53.204Z,57.17
2022-08-26T04:30:22.181Z,53.83
2022-08-26T04:32:50.614Z,66.82
2022-08-26T04:35:25.724Z,67.55
2022-08-26T04:37:54.330Z,71.22
2022-08-26T04:40:23.153Z,69.25
2022-08-26T04:42:51.984Z,67.10
2022-08-26T04:45:22.879Z,64.03
2022-08-26T04:47:54.685Z,57.20
2022-08-26T04:50:25.832Z,59.33
2022-08-26T04:52:55.432Z,57.95
2022-08-26T04:55:38.209Z,60.28
2022-08-26T04:58:10.339Z,58.17
2022-08-26T05:00:39.659Z,58.45
2022-08-26T05:03:10.520Z,59.00
2022-08-26T05:05:41.475Z,57.63
2022-08-26T05:08:11.285Z,47.42
2022-08-26T05:10:43.563Z,40.80
2022-08-26T05:13:15.187Z,42.95
2022-08-26T05:15:44.208Z,39.55
2022-08-26T05:18:13.908Z,32.13
2022-08-26T05:20:45.074Z,25.77
2022-08-26T05:23:15.587Z,32.08
2022-08-26T05:25:45.632Z,27.45
2022-08-26T05:28:14.944Z,25.63
2022-08-26T05:30:44.620Z,23.70
2022-08-26T05:33:13.322Z,24.30
2022-08-26T05:35:42.286Z,26.55
2022-08-26T05:38:13.252Z,23.05
2022-08-26T05:40:43.260Z,24.15
2022-08-26T05:43:11.916Z,21.30
2022-08-26T05:45:45.910Z,21.95
2022-08-26T05:48:15.580Z,17.40
2022-08-26T05:50:45.341Z,20.15
2022-08-26T05:53:17.467Z,19.67
2022-08-26T05:55:46.904Z,22.30
2022-08-26T05:58:15.330Z,23.48
2022-08-26T06:00:46.357Z,22.50
2022-08-26T06:03:14.814Z,17.08
2022-08-26T06:05:46.847Z,17.83
2022-08-26T06:08:19.269Z,21.67
2022-08-26T06:10:48.540Z,18.42
2022-08-26T06:13:18.387Z,19.83
2022-08-26T06:15:48.472Z,18.13
2022-08-26T06:18:18.003Z,17.80
2022-08-26T06:20:57.689Z,19.20
2022-08-26T06:23:46.445Z,15.68
2022-08-26T06:26:15.674Z,16.20
2022-08-26T06:28:45.447Z,18.88
2022-08-26T06:31:14.603Z,19.80
2022-08-26T06:33:43.609Z,16.50
2022-08-26T06:36:16.963Z,18.85
2022-08-26T06:41:18.131Z,18.02
2022-08-26T06:43:46.291Z,16.63
2022-08-26T06:46:17.296Z,14.95
2022-08-26T06:48:46.597Z,15.10
2022-08-26T06:51:17.249Z,14.77
2022-08-26T06:53:47.123Z,13.77
2022-08-26T06:56:21.021Z,15.50
2022-08-26T06:58:50.164Z,16.10
2022-08-26T07:01:20.402Z,19.77
2022-08-26T07:03:50.724Z,22.50
2022-08-26T07:06:20.289Z,14.30
2022-08-26T07:08:49.103Z,17.15
2022-08-26T07:11:19.521Z,20.98
2022-08-26T07:13:48.939Z,16.20
2022-08-26T07:16:19.072Z,19.63
2022-08-26T07:18:48.600Z,22.85
2022-08-26T07:21:18.366Z,14.32
2022-08-26T07:23:47.021Z,21.30
2022-08-26T07:26:17.287Z,14.55
2022-08-26T07:28:49.036Z,15.82
2022-08-26T07:31:18.687Z,19.40
2022-08-26T07:33:46.983Z,18.67
2022-08-26T07:36:17.725Z,20.40
2022-08-26T07:38:50.527Z,15.43
2022-08-26T07:41:22.844Z,19.63
2022-08-26T07:43:53.933Z,18.55
2022-08-26T07:46:27.451Z,18.48
2022-08-26T07:48:59.707Z,23.05
2022-08-26T07:51:28.763Z,16.98
2022-08-26T07:53:57.632Z,18.77
2022-08-26T07:56:26.313Z,16.60
2022-08-26T07:58:57.147Z,21.88
2022-08-26T08:01:29.105Z,24.98
2022-08-26T08:04:00.543Z,19.10
2022-08-26T08:06:30.916Z,17.38
2022-08-26T08:09:00.988Z,16.90
2022-08-26T08:11:31.241Z,22.08
2022-08-26T08:14:01.871Z,15.90
2022-08-26T08:16:38.161Z,16.88
2022-08-26T08:19:12.935Z,14.63
2022-08-26T08:21:41.784Z,14.90
2022-08-26T08:24:10.253Z,19.80
2022-08-26T08:26:39.006Z,17.17
2022-08-26T08:29:09.692Z,22.30
2022-08-26T08:31:56.203Z,16.52
2022-08-26T08:34:26.084Z,20.92
2022-08-26T08:36:54.455Z,18.95
2022-08-26T08:39:22.730Z,16.17
2022-08-26T08:42:08.538Z,24.77
2022-08-26T08:44:43.037Z,17.73
2022-08-26T08:49:45.550Z,15.07
2022-08-26T08:52:28.557Z,17.92
2022-08-26T08:54:57.648Z,19.00
2022-08-26T08:57:33.296Z,15.85
2022-08-26T09:00:12.020Z,12.70
2022-08-26T09:02:50.553Z,12.27
2022-08-26T09:05:23.654Z,20.90
2022-08-26T09:07:58.589Z,20.73
2022-08-26T09:10:33.769Z,16.30
2022-08-26T09:13:08.601Z,17.95
2022-08-26T09:15:51.160Z,20.50
2022-08-26T09:18:40.804Z,18.95
2022-08-26T09:21:12.229Z,13.68
2022-08-26T09:23:43.032Z,16.45
2022-08-26T09:26:18.129Z,24.45
2022-08-26T09:28:51.046Z,21.95
2022-08-26T09:31:25.498Z,17.08
2022-08-26T09:34:08.084Z,20.50
2022-08-26T09:36:41.151Z,18.08
2022-08-26T09:39:31.352Z,15.45
2022-08-26T09:42:10.423Z,21.15
2022-08-26T09:44:54.924Z,17.48
2022-08-26T09:47:31.635Z,15.02
2022-08-26T09:50:04.734Z,16.35
2022-08-26T09:52:40.392Z,16.48
2022-08-26T09:55:14.914Z,21.13
2022-08-26T09:57:51.163Z,15.15
2022-08-26T10:00:30.752Z,14.77
2022-08-26T10:03:02.944Z,21.35
2022-08-26T10:05:36.655Z,17.67
2022-08-26T10:08:21.245Z,18.08
2022-08-26T10:10:53.272Z,15.68
2022-08-26T10:13:44.519Z,17.65
2022-08-26T10:16:18.732Z,17.30
2022-08-26T10:18:56.845Z,21.20
2022-08-26T10:21:32.258Z,22.13
2022-08-26T10:24:03.653Z,15.88
2022-08-26T10:26:41.331Z,21.30
2022-08-26T10:29:14.463Z,24.70
2022-08-26T10:31:51.427Z,19.25
2022-08-26T10:34:21.690Z,19.85
2022-08-26T10:37:14.383Z,18.27
2022-08-26T10:39:55.236Z,20.67
2022-08-26T10:42:33.436Z,19.30
2022-08-26T10:45:07.614Z,22.92
2022-08-26T10:47:48.960Z,26.65
2022-08-26T10:50:25.698Z,24.17
2022-08-26T10:53:00.850Z,16.20
2022-08-26T10:55:38.422Z,13.57
2022-08-26T10:58:33.334Z,18.35
2022-08-26T11:01:27.031Z,19.55
2022-08-26T11:04:01.314Z,18.73
2022-08-26T11:06:32.876Z,24.05
2022-08-26T11:09:03.459Z,24.95
2022-08-26T11:11:53.650Z,17.08
2022-08-26T11:14:46.092Z,15.40
2022-08-26T11:17:58.198Z,13.40
2022-08-26T11:20:39.659Z,14.48
2022-08-26T11:23:50.436Z,20.88
2022-08-26T11:26:43.147Z,20.23
2022-08-26T11:29:13.546Z,15.35
2022-08-26T11:31:57.165Z,11.70
2022-08-26T11:34:56.738Z,16.50
2022-08-26T11:37:33.412Z,13.75
2022-08-26T11:40:05.553Z,17.33
2022-08-26T11:42:41.679Z,22.02
2022-08-26T11:45:20.425Z,9.65
2022-08-26T11:47:51.124Z,30.30
2022-08-26T11:50:23.541Z,33.00
2022-08-26T11:52:53.765Z,23.30
2022-08-26T11:55:24.281Z,18.05
2022-08-26T11:57:55.806Z,20.55
2022-08-26T12:00:28.319Z,11.30
2022-08-26T12:03:06.916Z,24.58
2022-08-26T12:05:39.596Z,18.55
2022-08-26T12:08:11.299Z,23.67
2022-08-26T12:10:43.301Z,17.13
2022-08-26T12:13:22.732Z,17.75
2022-08-26T12:15:56.657Z,16.15
2022-08-26T12:18:31.713Z,15.02
2022-08-26T12:21:02.513Z,19.40
2022-08-26T12:23:50.867Z,18.23
2022-08-26T12:26:28.493Z,15.50
2022-08-26T12:29:01.917Z,11.10
2022-08-26T12:31:45.760Z,14.18
2022-08-26T12:34:19.186Z,13.10
2022-08-26T12:36:51.664Z,13.80
2022-08-26T12:39:28.392Z,18.52
2022-08-26T12:42:00.283Z,11.10
2022-08-26T12:44:54.223Z,16.88
2022-08-26T12:47:42.405Z,18.48
2022-08-26T12:50:20.529Z,17.92
2022-08-26T12:53:10.697Z,17.52
2022-08-26T12:55:43.892Z,22.45
2022-08-26T12:58:32.253Z,17.35
2022-08-26T13:01:23.261Z,15.82
2022-08-26T13:03:54.664Z,20.92
2022-08-26T13:06:29.967Z,17.88
2022-08-26T13:09:00.766Z,13.50
2022-08-26T13:11:35.301Z,21.58
2022-08-26T13:14:08.786Z,23.13
2022-08-26T13:16:38.736Z,18.98
2022-08-26T13:19:10.705Z,18.58
2022-08-26T13:21:44.895Z,16.70
2022-08-26T13:24:15.705Z,15.40
2022-08-26T13:26:46.984Z,15.73
2022-08-26T13:29:20.551Z,15.23
2022-08-26T13:31:49.605Z,13.75
2022-08-26T13:34:21.284Z,14.93
2022-08-26T13:36:50.936Z,13.27
2022-08-26T13:39:20.026Z,12.07
2022-08-26T13:41:48.364Z,15.00
2022-08-26T13:44:18.195Z,20.20
2022-08-26T13:46:46.971Z,15.15
2022-08-26T13:49:15.590Z,13.63
2022-08-26T13:51:43.855Z,14.63
2022-08-26T13:54:12.034Z,10.18
2022-08-26T13:56:40.401Z,16.50
2022-08-26T13:59:08.616Z,16.70
2022-08-26T14:01:38.238Z,15.43
2022-08-26T14:04:06.473Z,16.02
2022-08-26T14:06:34.725Z,14.15
2022-08-26T14:09:03.225Z,16.73
2022-08-26T14:11:41.184Z,15.35
2022-08-26T14:14:19.506Z,13.50
2022-08-26T14:16:58.938Z,14.85
2022-08-26T14:19:28.583Z,15.38
2022-08-26T14:21:57.130Z,17.73
2022-08-26T14:24:25.466Z,13.98
2022-08-26T14:26:53.679Z,18.45
2022-08-26T14:29:22.073Z,15.70
2022-08-26T14:31:52.618Z,17.70
2022-08-26T14:34:21.316Z,15.40
2022-08-26T14:36:49.546Z,15.05
2022-08-26T14:39:17.791Z,18.15
2022-08-26T14:41:53.887Z,17.65
2022-08-26T14:44:25.269Z,19.88
2022-08-26T14:46:55.606Z,19.58
2022-08-26T14:49:27.293Z,20.65
2022-08-26T14:51:56.476Z,20.42
2022-08-26T14:54:23.791Z,22.63
2022-08-26T14:56:54.508Z,19.50
2022-08-26T14:59:25.538Z,19.45
2022-08-26T15:01:56.253Z,17.00
2022-08-26T15:04:26.264Z,15.23
2022-08-26T15:06:56.084Z,16.70
2022-08-26T15:09:25.099Z,18.35
2022-08-26T15:11:54.356Z,13.18
2022-08-26T15:14:23.220Z,18.73
2022-08-26T15:16:53.464Z,16.23
2022-08-26T15:19:24.353Z,13.65
2022-08-26T15:21:52.654Z,16.67
2022-08-26T15:24:23.600Z,16.50
2022-08-26T15:26:53.454Z,15.23
2022-08-26T15:29:22.890Z,13.02
2022-08-26T15:31:51.523Z,12.25
2022-08-26T15:34:27.059Z,12.43
2022-08-26T15:36:55.591Z,12.80
2022-08-26T15:39:37.252Z,11.43
2022-08-26T15:42:06.011Z,13.35
2022-08-26T15:44:37.199Z,11.85
2022-08-26T15:47:05.545Z,9.73
2022-08-26T15:49:35.246Z,10.75
2022-08-26T15:52:05.481Z,11.82
2022-08-26T15:54:34.451Z,10.32
2022-08-26T15:57:04.652Z,10.10
2022-08-26T15:59:33.605Z,9.25
2022-08-26T16:02:02.190Z,11.35
2022-08-26T16:04:30.404Z,8.63
2022-08-26T16:06:59.980Z,11.32
2022-08-26T16:09:28.978Z,11.48
2022-08-26T16:11:57.878Z,7.85
2022-08-26T16:14:26.938Z,11.13
2022-08-26T16:16:56.541Z,11.88
2022-08-26T16:19:24.704Z,10.23
2022-08-26T16:21:52.917Z,11.13
2022-08-26T16:24:28.461Z,11.25
2022-08-26T16:26:58.515Z,11.02
2022-08-26T16:29:26.771Z,7.70
2022-08-26T16:31:55.207Z,9.55
2022-08-26T16:34:24.281Z,12.23
2022-08-26T16:36:53.278Z,12.25
2022-08-26T16:39:24.782Z,9.73
2022-08-26T16:41:53.194Z,8.70
2022-08-26T16:44:22.250Z,10.52
2022-08-26T16:46:50.671Z,10.32
2022-08-26T16:49:26.572Z,11.95
2022-08-26T16:51:54.659Z,9.90
2022-08-26T16:54:24.816Z,10.63
2022-08-26T16:56:53.007Z,11.50
2022-08-26T16:59:24.853Z,10.43
2022-08-26T17:01:53.484Z,12.15
2022-08-26T17:04:22.052Z,17.67
2022-08-26T17:06:50.887Z,16.55
2022-08-26T17:09:19.442Z,16.08
2022-08-26T17:11:52.851Z,12.65
2022-08-26T17:14:21.128Z,14.05
2022-08-26T17:16:51.306Z,11.18
2022-08-26T17:19:20.832Z,26.17
2022-08-26T17:21:50.361Z,19.85
2022-08-26T17:24:19.072Z,17.27
2022-08-26T17:26:54.332Z,15.15
2022-08-26T17:29:24.535Z,12.70
2022-08-26T17:31:54.127Z,13.75
2022-08-26T17:34:23.349Z,14.18
2022-08-26T17:36:51.676Z,12.20
2022-08-26T17:39:20.497Z,12.90
2022-08-26T17:41:50.466Z,12.23
2022-08-26T17:44:18.979Z,14.40
2022-08-26T17:46:47.732Z,13.77
2022-08-26T17:49:16.005Z,12.18
2022-08-26T17:51:44.292Z,17.25
2022-08-26T17:54:12.453Z,16.73
2022-08-26T17:56:40.653Z,27.00
2022-08-26T17:59:11.311Z,21.73
2022-08-26T18:01:40.971Z,16.98
2022-08-26T18:04:32.593Z,21.48
2022-08-26T18:07:01.418Z,15.35
2022-08-26T18:09:31.266Z,15.38
2022-08-26T18:12:00.294Z,16.25
2022-08-26T18:14:30.399Z,18.83
2022-08-26T18:16:58.660Z,15.32
2022-08-26T18:19:26.943Z,20.05
2022-08-26T18:22:23.303Z,19.23
2022-08-26T18:24:58.781Z,30.75
2022-08-26T18:27:27.880Z,19.80
2022-08-26T18:29:58.744Z,19.17
2022-08-26T18:32:27.554Z,19.83
2022-08-26T18:34:58.258Z,19.35
2022-08-26T18:37:29.576Z,26.67
2022-08-26T18:40:01.293Z,26.10
2022-08-26T18:42:30.077Z,19.58
2022-08-26T18:45:00.069Z,23.80
2022-08-26T18:47:30.370Z,25.83
2022-08-26T18:49:59.093Z,20.38
2022-08-26T18:52:27.657Z,22.75
2022-08-26T18:54:56.290Z,19.48
2022-08-26T18:57:25.240Z,24.58
2022-08-26T18:59:54.093Z,22.13
2022-08-26T19:02:24.647Z,23.35
2022-08-26T19:04:53.752Z,23.70
2022-08-26T19:07:22.985Z,23.02
2022-08-26T19:09:54.013Z,20.52
2022-08-26T19:12:22.869Z,23.98
2022-08-26T19:14:55.488Z,22.08
2022-08-26T19:17:25.835Z,21.35
2022-08-26T19:19:54.647Z,21.63
2022-08-26T19:22:23.307Z,21.95
2022-08-26T19:24:53.115Z,24.90
2022-08-26T19:27:22.827Z,25.58
2022-08-26T19:29:52.191Z,19.67
2022-08-26T19:32:24.705Z,23.35
2022-08-26T19:34:55.802Z,23.40
2022-08-26T19:37:26.441Z,23.90
2022-08-26T19:39:55.687Z,18.77
2022-08-26T19:42:26.097Z,23.42
2022-08-26T19:45:24.630Z,21.77
2022-08-26T19:47:55.733Z,24.75
2022-08-26T19:50:28.912Z,20.85
2022-08-26T19:52:58.665Z,26.05
2022-08-26T19:55:29.918Z,23.15
2022-08-26T19:57:59.733Z,20.35
2022-08-26T20:00:31.951Z,23.17
2022-08-26T20:03:01.727Z,24.35
2022-08-26T20:05:31.965Z,20.92
2022-08-26T20:08:00.907Z,29.15
2022-08-26T20:10:29.263Z,33.10
2022-08-26T20:12:57.391Z,28.15
2022-08-26T20:15:25.612Z,28.17
2022-08-26T20:17:57.721Z,33.00
2022-08-26T20:20:43.189Z,38.38
2022-08-26T20:23:12.713Z,65.33
2022-08-26T20:25:42.845Z,68.35
2022-08-26T20:28:11.154Z,57.28
2022-08-26T20:30:39.776Z,64.07
2022-08-26T20:33:07.941Z,51.30
2022-08-26T20:35:36.153Z,42.15
2022-08-26T20:38:05.776Z,53.63
2022-08-26T20:40:35.667Z,43.92
2022-08-26T20:43:06.341Z,36.97
2022-08-26T20:45:34.727Z,35.20
2022-08-26T20:48:03.637Z,33.70
2022-08-26T20:50:32.729Z,45.10
2022-08-26T20:53:13.070Z,45.20
2022-08-26T20:55:45.009Z,34.00
2022-08-26T20:58:13.500Z,34.08
2022-08-26T21:00:42.340Z,31.20
2022-08-26T21:03:10.740Z,32.13
2022-08-26T21:05:39.067Z,33.65
2022-08-26T21:08:07.299Z,34.63
2022-08-26T21:10:39.793Z,31.83
2022-08-26T21:13:09.532Z,29.88
2022-08-26T21:15:37.743Z,30.02
2022-08-26T21:18:06.437Z,29.10
2022-08-26T21:20:34.699Z,37.00
2022-08-26T21:23:02.992Z,34.40
2022-08-26T21:25:31.387Z,34.63
2022-08-26T21:27:59.917Z,37.08
2022-08-26T21:30:29.971Z,33.03
2022-08-26T21:32:58.870Z,39.50
2022-08-26T21:35:27.476Z,37.75
2022-08-26T21:37:56.066Z,39.60
2022-08-26T21:40:24.631Z,33.20
2022-08-26T21:42:53.221Z,39.60
2022-08-26T21:45:22.118Z,39.67
2022-08-26T21:47:52.727Z,39.58
2022-08-26T21:50:21.686Z,34.75
2022-08-26T21:52:50.287Z,33.15
2022-08-26T21:55:19.044Z,34.90
2022-08-26T21:57:53.107Z,35.38
2022-08-26T22:00:22.030Z,40.92
2022-08-26T22:02:52.092Z,35.20
2022-08-26T22:05:20.929Z,35.35
2022-08-26T22:07:49.447Z,37.42
2022-08-26T22:10:18.048Z,33.55
2022-08-26T22:12:47.012Z,33.15
2022-08-26T22:15:15.874Z,31.83
2022-08-26T22:17:44.510Z,32.50
2022-08-26T22:20:16.374Z,33.85
2022-08-26T22:22:45.766Z,33.10
2022-08-26T22:25:14.562Z,30.20
2022-08-26T22:27:43.048Z,33.97
2022-08-26T22:30:12.069Z,32.88
2022-08-26T22:32:40.974Z,31.58
2022-08-26T22:35:28.707Z,27.20
2022-08-26T22:37:59.748Z,32.60
2022-08-26T22:40:29.147Z,30.23
2022-08-26T22:43:00.404Z,32.40
2022-08-26T22:45:30.112Z,35.08
2022-08-26T22:47:58.965Z,33.13
2022-08-26T22:50:27.952Z,30.73
2022-08-26T22:52:56.532Z,26.27
2022-08-26T22:55:27.039Z,31.02
2022-08-26T22:57:55.681Z,31.92
2022-08-26T23:00:32.073Z,32.08
2022-08-26T23:03:01.514Z,30.17
2022-08-26T23:05:31.063Z,26.17
2022-08-26T23:07:59.643Z,30.83
2022-08-26T23:10:29.789Z,28.25
2022-08-26T23:12:58.898Z,27.95
2022-08-26T23:15:27.706Z,24.52
2022-08-26T23:17:58.810Z,22.23
2022-08-26T23:20:28.134Z,26.85
2022-08-26T23:22:56.985Z,30.52
2022-08-26T23:25:25.747Z,30.40
2022-08-26T23:27:55.660Z,32.50
2022-08-26T23:30:25.643Z,34.60
2022-08-26T23:32:54.132Z,33.95
2022-08-26T23:35:22.216Z,29.38
2022-08-26T23:37:52.477Z,33.50
2022-08-26T23:40:22.361Z,32.85
2022-08-26T23:42:52.598Z,34.42
2022-08-26T23:45:24.734Z,40.97
2022-08-26T23:47:53.298Z,37.85
2022-08-26T23:50:23.006Z,42.05
2022-08-26T23:53:08.768Z,41.08
2022-08-26T23:55:37.734Z,36.53
2022-08-26T23:58:08.258Z,37.05
